Boggs, West Virginia
Current Conditions -  °F | °C
As of 12:15 PM on Saturday 25 Oct 2014 (Local Time) from KLWB Reporting Station
Clear Clear  
Wind Chill: 58°   Ceiling: Unl
Heat Index: 58°   Visibility: 10mi
Dew Point: 41°   Wind: 9mph
Humidity: 54%   Direction: 230°SW
Pressure: 30.03"   Gusts: NA
Location:  38.3787°N, 80.4763°W
Report Text: KLWB 251615Z AUTO 23008KT 10SM CLR 14/05 A3003 RMK AO2 T01430052
Loading
Personal Weather Stations






























Interactive Weather Map
Tropical Storm Tracking
New forecast layout! Learn more

10-Day Weather Forecast

Advertisements
Track Severe Weather on mobile